Strand, South Africa
Current Conditions -  °F | °C
As of 3:00 AM on Saturday 20 Dec 2014 (Local Time) from FACT Reporting Station
Broken Clouds Broken Clouds  
Wind Chill: 63°   Ceiling: 5000
Heat Index: 63°   Visibility: 6mi
Dew Point: 50°   Wind: 3mph
Humidity: 63%   Direction: 10°N
Pressure: 30.03"   Gusts: NA
Location:  34.1°S, 18.82°E
Report Text: FACT 200100Z 01003KT 9999 BKN050 17/10 Q1017 NOSIG
Loading
Personal Weather Stations






























Interactive Weather Map New forecast layout! Learn more

10-Day Weather Forecast

Advertisements
Track Severe Weather on mobile